sensor_id;sensor_type;location;lat;lon;timestamp;P1;durP1;ratioP1;P2;durP2;ratioP2
27632;SDS011;15046;50.930;13.334;2022-09-13T00:00:43;6.82;;;4.10;;
27632;SDS011;15046;50.930;13.334;2022-09-13T00:03:11;7.03;;;4.53;;
27632;SDS011;15046;50.930;13.334;2022-09-13T00:05:37;7.93;;;4.63;;
27632;SDS011;15046;50.930;13.334;2022-09-13T00:08:04;7.95;;;4.80;;
27632;SDS011;15046;50.930;13.334;2022-09-13T00:10:32;8.57;;;4.90;;
27632;SDS011;15046;50.930;13.334;2022-09-13T00:16:59;7.80;;;4.90;;
27632;SDS011;15046;50.930;13.334;2022-09-13T00:26:42;11.27;;;5.47;;
27632;SDS011;15046;50.930;13.334;2022-09-13T00:29:07;8.32;;;5.18;;
27632;SDS011;15046;50.930;13.334;2022-09-13T00:31:33;8.93;;;4.93;;
27632;SDS011;15046;50.930;13.334;2022-09-13T00:33:59;7.47;;;5.10;;
27632;SDS011;15046;50.930;13.334;2022-09-13T00:36:25;7.18;;;5.15;;
27632;SDS011;15046;50.930;13.334;2022-09-13T00:38:51;6.57;;;4.90;;
27632;SDS011;15046;50.930;13.334;2022-09-13T00:41:18;7.68;;;4.88;;
27632;SDS011;15046;50.930;13.334;2022-09-13T00:46:11;8.63;;;5.15;;
27632;SDS011;15046;50.930;13.334;2022-09-13T00:48:42;9.43;;;5.63;;
27632;SDS011;15046;50.930;13.334;2022-09-13T00:51:11;10.47;;;6.13;;
27632;SDS011;15046;50.930;13.334;2022-09-13T00:53:39;9.82;;;5.32;;
27632;SDS011;15046;50.930;13.334;2022-09-13T00:56:31;8.32;;;5.40;;
27632;SDS011;15046;50.930;13.334;2022-09-13T00:59:06;7.85;;;5.50;;
27632;SDS011;15046;50.930;13.334;2022-09-13T01:01:43;8.00;;;5.35;;
27632;SDS011;15046;50.930;13.334;2022-09-13T01:04:14;7.90;;;5.32;;
27632;SDS011;15046;50.930;13.334;2022-09-13T01:06:42;9.63;;;5.47;;
27632;SDS011;15046;50.930;13.334;2022-09-13T01:09:09;8.13;;;5.57;;
27632;SDS011;15046;50.930;13.334;2022-09-13T01:11:49;9.27;;;5.75;;
27632;SDS011;15046;50.930;13.334;2022-09-13T01:14:24;9.77;;;5.50;;
27632;SDS011;15046;50.930;13.334;2022-09-13T01:16:52;8.38;;;5.53;;
27632;SDS011;15046;50.930;13.334;2022-09-13T01:19:18;9.50;;;5.95;;
27632;SDS011;15046;50.930;13.334;2022-09-13T01:30:18;9.50;;;6.07;;
27632;SDS011;15046;50.930;13.334;2022-09-13T01:38:42;9.70;;;5.55;;
27632;SDS011;15046;50.930;13.334;2022-09-13T01:47:26;7.65;;;5.88;;
27632;SDS011;15046;50.930;13.334;2022-09-13T01:52:44;9.30;;;6.07;;
27632;SDS011;15046;50.930;13.334;2022-09-13T02:00:34;7.72;;;4.63;;
27632;SDS011;15046;50.930;13.334;2022-09-13T02:03:13;6.78;;;4.93;;
27632;SDS011;15046;50.930;13.334;2022-09-13T02:05:53;7.75;;;5.25;;
27632;SDS011;15046;50.930;13.334;2022-09-13T02:08:24;8.80;;;5.15;;
27632;SDS011;15046;50.930;13.334;2022-09-13T02:11:04;7.35;;;4.65;;
27632;SDS011;15046;50.930;13.334;2022-09-13T02:13:43;7.82;;;4.40;;
27632;SDS011;15046;50.930;13.334;2022-09-13T02:19:20;8.43;;;5.47;;
27632;SDS011;15046;50.930;13.334;2022-09-13T02:21:53;7.15;;;4.65;;
27632;SDS011;15046;50.930;13.334;2022-09-13T02:24:28;8.75;;;4.72;;
27632;SDS011;15046;50.930;13.334;2022-09-13T02:26:57;6.78;;;4.32;;
27632;SDS011;15046;50.930;13.334;2022-09-13T02:29:28;9.77;;;5.50;;
27632;SDS011;15046;50.930;13.334;2022-09-13T02:32:00;7.43;;;4.97;;
27632;SDS011;15046;50.930;13.334;2022-09-13T02:34:46;6.82;;;4.95;;
27632;SDS011;15046;50.930;13.334;2022-09-13T02:37:18;6.57;;;4.68;;
27632;SDS011;15046;50.930;13.334;2022-09-13T02:39:49;7.25;;;4.72;;
27632;SDS011;15046;50.930;13.334;2022-09-13T02:42:25;7.30;;;4.70;;
27632;SDS011;15046;50.930;13.334;2022-09-13T02:44:58;6.65;;;3.92;;
27632;SDS011;15046;50.930;13.334;2022-09-13T02:58:02;6.22;;;4.57;;
27632;SDS011;15046;50.930;13.334;2022-09-13T03:00:35;6.78;;;4.50;;
27632;SDS011;15046;50.930;13.334;2022-09-13T03:03:02;5.53;;;4.00;;
27632;SDS011;15046;50.930;13.334;2022-09-13T03:05:31;7.40;;;4.75;;
27632;SDS011;15046;50.930;13.334;2022-09-13T03:07:57;6.60;;;4.35;;
27632;SDS011;15046;50.930;13.334;2022-09-13T03:10:24;6.10;;;4.35;;
27632;SDS011;15046;50.930;13.334;2022-09-13T03:22:13;7.22;;;4.63;;
27632;SDS011;15046;50.930;13.334;2022-09-13T03:30:16;6.90;;;4.63;;
27632;SDS011;15046;50.930;13.334;2022-09-13T03:32:50;6.53;;;4.32;;
27632;SDS011;15046;50.930;13.334;2022-09-13T03:35:32;7.50;;;4.10;;
27632;SDS011;15046;50.930;13.334;2022-09-13T03:40:53;6.55;;;4.38;;
27632;SDS011;15046;50.930;13.334;2022-09-13T03:43:27;7.80;;;4.80;;
27632;SDS011;15046;50.930;13.334;2022-09-13T03:46:16;7.18;;;4.57;;
27632;SDS011;15046;50.930;13.334;2022-09-13T03:48:47;9.90;;;5.22;;
27632;SDS011;15046;50.930;13.334;2022-09-13T03:51:15;8.30;;;4.72;;
27632;SDS011;15046;50.930;13.334;2022-09-13T03:53:42;6.57;;;4.55;;
27632;SDS011;15046;50.930;13.334;2022-09-13T03:56:13;7.32;;;4.65;;
27632;SDS011;15046;50.930;13.334;2022-09-13T03:58:41;7.93;;;5.20;;
27632;SDS011;15046;50.930;13.334;2022-09-13T04:01:08;5.70;;;4.18;;
27632;SDS011;15046;50.930;13.334;2022-09-13T04:03:37;7.95;;;5.10;;
27632;SDS011;15046;50.930;13.334;2022-09-13T04:06:04;8.70;;;5.35;;
27632;SDS011;15046;50.930;13.334;2022-09-13T04:08:31;8.77;;;5.63;;
27632;SDS011;15046;50.930;13.334;2022-09-13T04:10:57;10.90;;;5.78;;
27632;SDS011;15046;50.930;13.334;2022-09-13T04:13:24;7.57;;;5.22;;
27632;SDS011;15046;50.930;13.334;2022-09-13T04:15:50;8.32;;;5.35;;
27632;SDS011;15046;50.930;13.334;2022-09-13T04:18:22;9.93;;;5.07;;
27632;SDS011;15046;50.930;13.334;2022-09-13T04:20:52;10.05;;;6.18;;
27632;SDS011;15046;50.930;13.334;2022-09-13T04:23:21;9.90;;;5.97;;
27632;SDS011;15046;50.930;13.334;2022-09-13T04:25:48;7.18;;;5.18;;
27632;SDS011;15046;50.930;13.334;2022-09-13T04:28:17;7.00;;;4.97;;
27632;SDS011;15046;50.930;13.334;2022-09-13T04:30:45;8.70;;;6.05;;
27632;SDS011;15046;50.930;13.334;2022-09-13T04:33:12;8.88;;;5.53;;
27632;SDS011;15046;50.930;13.334;2022-09-13T04:35:56;7.78;;;5.40;;
27632;SDS011;15046;50.930;13.334;2022-09-13T04:38:47;7.85;;;5.85;;
27632;SDS011;15046;50.930;13.334;2022-09-13T04:41:15;8.70;;;5.70;;
27632;SDS011;15046;50.930;13.334;2022-09-13T04:43:42;7.93;;;5.47;;
27632;SDS011;15046;50.930;13.334;2022-09-13T04:46:12;9.00;;;6.07;;
27632;SDS011;15046;50.930;13.334;2022-09-13T04:48:49;7.90;;;5.55;;
27632;SDS011;15046;50.930;13.334;2022-09-13T04:51:24;8.15;;;5.05;;
27632;SDS011;15046;50.930;13.334;2022-09-13T04:53:51;7.82;;;5.20;;
27632;SDS011;15046;50.930;13.334;2022-09-13T04:56:23;8.45;;;6.22;;
27632;SDS011;15046;50.930;13.334;2022-09-13T04:58:50;9.93;;;6.15;;
27632;SDS011;15046;50.930;13.334;2022-09-13T05:01:28;9.73;;;5.80;;
27632;SDS011;15046;50.930;13.334;2022-09-13T05:03:54;7.88;;;5.45;;
27632;SDS011;15046;50.930;13.334;2022-09-13T05:06:20;9.05;;;5.72;;
27632;SDS011;15046;50.930;13.334;2022-09-13T05:08:51;8.38;;;6.13;;
27632;SDS011;15046;50.930;13.334;2022-09-13T05:11:19;9.20;;;6.25;;
27632;SDS011;15046;50.930;13.334;2022-09-13T05:13:53;8.13;;;5.97;;
27632;SDS011;15046;50.930;13.334;2022-09-13T05:16:23;9.07;;;6.03;;
27632;SDS011;15046;50.930;13.334;2022-09-13T05:18:50;11.73;;;6.13;;
27632;SDS011;15046;50.930;13.334;2022-09-13T05:21:16;10.13;;;6.45;;
27632;SDS011;15046;50.930;13.334;2022-09-13T05:23:43;11.27;;;5.82;;
27632;SDS011;15046;50.930;13.334;2022-09-13T05:26:09;8.32;;;6.38;;
27632;SDS011;15046;50.930;13.334;2022-09-13T05:28:35;9.88;;;6.00;;
27632;SDS011;15046;50.930;13.334;2022-09-13T05:31:03;7.93;;;5.93;;
27632;SDS011;15046;50.930;13.334;2022-09-13T05:33:31;12.40;;;6.60;;
27632;SDS011;15046;50.930;13.334;2022-09-13T05:35:59;8.60;;;6.72;;
27632;SDS011;15046;50.930;13.334;2022-09-13T05:38:25;9.75;;;6.30;;
27632;SDS011;15046;50.930;13.334;2022-09-13T05:40:59;7.85;;;6.28;;
27632;SDS011;15046;50.930;13.334;2022-09-13T05:43:28;8.73;;;6.05;;
27632;SDS011;15046;50.930;13.334;2022-09-13T05:45:59;10.60;;;5.95;;
27632;SDS011;15046;50.930;13.334;2022-09-13T05:48:29;9.43;;;5.78;;
27632;SDS011;15046;50.930;13.334;2022-09-13T05:50:56;9.80;;;5.95;;
27632;SDS011;15046;50.930;13.334;2022-09-13T05:53:29;9.27;;;6.15;;
27632;SDS011;15046;50.930;13.334;2022-09-13T05:55:55;10.05;;;5.82;;
27632;SDS011;15046;50.930;13.334;2022-09-13T05:58:21;8.95;;;6.07;;
27632;SDS011;15046;50.930;13.334;2022-09-13T06:00:56;7.50;;;5.70;;
27632;SDS011;15046;50.930;13.334;2022-09-13T06:03:22;8.82;;;5.68;;
27632;SDS011;15046;50.930;13.334;2022-09-13T06:05:49;8.40;;;5.82;;
27632;SDS011;15046;50.930;13.334;2022-09-13T06:08:18;5.53;;;4.22;;
27632;SDS011;15046;50.930;13.334;2022-09-13T06:10:51;7.97;;;5.72;;
27632;SDS011;15046;50.930;13.334;2022-09-13T06:13:31;7.78;;;5.28;;
27632;SDS011;15046;50.930;13.334;2022-09-13T06:15:58;8.35;;;5.47;;
27632;SDS011;15046;50.930;13.334;2022-09-13T06:18:25;6.95;;;5.03;;
27632;SDS011;15046;50.930;13.334;2022-09-13T06:20:59;8.20;;;5.05;;
27632;SDS011;15046;50.930;13.334;2022-09-13T06:23:27;8.75;;;5.45;;
27632;SDS011;15046;50.930;13.334;2022-09-13T06:26:09;6.85;;;4.80;;
27632;SDS011;15046;50.930;13.334;2022-09-13T06:28:37;6.93;;;5.05;;
27632;SDS011;15046;50.930;13.334;2022-09-13T06:33:37;7.68;;;4.97;;
27632;SDS011;15046;50.930;13.334;2022-09-13T06:36:05;9.43;;;5.22;;
27632;SDS011;15046;50.930;13.334;2022-09-13T06:38:33;8.07;;;4.80;;
27632;SDS011;15046;50.930;13.334;2022-09-13T06:41:04;13.85;;;5.20;;
27632;SDS011;15046;50.930;13.334;2022-09-13T06:43:31;7.20;;;4.85;;
27632;SDS011;15046;50.930;13.334;2022-09-13T06:46:02;6.40;;;4.63;;
27632;SDS011;15046;50.930;13.334;2022-09-13T06:48:31;6.78;;;4.78;;
27632;SDS011;15046;50.930;13.334;2022-09-13T06:50:59;6.57;;;4.82;;
27632;SDS011;15046;50.930;13.334;2022-09-13T06:53:26;5.47;;;3.92;;
27632;SDS011;15046;50.930;13.334;2022-09-13T06:56:26;5.07;;;3.90;;
27632;SDS011;15046;50.930;13.334;2022-09-13T07:01:31;5.65;;;4.18;;
27632;SDS011;15046;50.930;13.334;2022-09-13T07:04:05;6.20;;;4.07;;
27632;SDS011;15046;50.930;13.334;2022-09-13T07:06:33;7.32;;;4.05;;
27632;SDS011;15046;50.930;13.334;2022-09-13T07:09:02;5.95;;;4.07;;
27632;SDS011;15046;50.930;13.334;2022-09-13T07:11:32;6.75;;;4.40;;
27632;SDS011;15046;50.930;13.334;2022-09-13T07:13:59;5.20;;;3.95;;
27632;SDS011;15046;50.930;13.334;2022-09-13T07:16:26;5.93;;;3.90;;
27632;SDS011;15046;50.930;13.334;2022-09-13T07:18:55;5.90;;;4.10;;
27632;SDS011;15046;50.930;13.334;2022-09-13T07:21:32;6.72;;;4.40;;
27632;SDS011;15046;50.930;13.334;2022-09-13T07:23:59;9.32;;;4.60;;
27632;SDS011;15046;50.930;13.334;2022-09-13T07:26:26;6.47;;;3.70;;
27632;SDS011;15046;50.930;13.334;2022-09-13T07:28:53;5.50;;;3.97;;
27632;SDS011;15046;50.930;13.334;2022-09-13T07:31:22;6.88;;;3.90;;
27632;SDS011;15046;50.930;13.334;2022-09-13T07:33:53;5.65;;;4.00;;
27632;SDS011;15046;50.930;13.334;2022-09-13T07:36:20;5.10;;;3.75;;
27632;SDS011;15046;50.930;13.334;2022-09-13T07:38:46;5.45;;;3.75;;
27632;SDS011;15046;50.930;13.334;2022-09-13T07:41:13;8.75;;;4.00;;
27632;SDS011;15046;50.930;13.334;2022-09-13T07:43:41;5.33;;;3.80;;
27632;SDS011;15046;50.930;13.334;2022-09-13T07:46:08;5.32;;;3.90;;
27632;SDS011;15046;50.930;13.334;2022-09-13T07:48:38;8.20;;;4.13;;
27632;SDS011;15046;50.930;13.334;2022-09-13T07:51:07;5.43;;;3.90;;
27632;SDS011;15046;50.930;13.334;2022-09-13T07:53:35;6.38;;;4.18;;
27632;SDS011;15046;50.930;13.334;2022-09-13T07:58:35;6.30;;;4.30;;
27632;SDS011;15046;50.930;13.334;2022-09-13T08:01:06;7.57;;;4.75;;
27632;SDS011;15046;50.930;13.334;2022-09-13T08:03:34;6.72;;;5.05;;
27632;SDS011;15046;50.930;13.334;2022-09-13T08:06:00;7.20;;;4.63;;
27632;SDS011;15046;50.930;13.334;2022-09-13T08:08:27;6.25;;;4.55;;
27632;SDS011;15046;50.930;13.334;2022-09-13T08:10:54;6.47;;;4.68;;
27632;SDS011;15046;50.930;13.334;2022-09-13T08:13:20;6.35;;;4.82;;
27632;SDS011;15046;50.930;13.334;2022-09-13T08:15:46;7.57;;;5.68;;
27632;SDS011;15046;50.930;13.334;2022-09-13T08:18:12;7.63;;;5.55;;
27632;SDS011;15046;50.930;13.334;2022-09-13T08:20:38;10.43;;;5.93;;
27632;SDS011;15046;50.930;13.334;2022-09-13T08:23:04;7.07;;;5.72;;
27632;SDS011;15046;50.930;13.334;2022-09-13T08:25:32;12.07;;;6.18;;
27632;SDS011;15046;50.930;13.334;2022-09-13T08:28:13;10.30;;;6.85;;
27632;SDS011;15046;50.930;13.334;2022-09-13T08:30:40;10.02;;;6.63;;
27632;SDS011;15046;50.930;13.334;2022-09-13T08:33:07;9.73;;;6.75;;
27632;SDS011;15046;50.930;13.334;2022-09-13T08:35:37;7.60;;;6.15;;
27632;SDS011;15046;50.930;13.334;2022-09-13T08:38:03;9.65;;;6.90;;
27632;SDS011;15046;50.930;13.334;2022-09-13T08:40:39;9.38;;;5.95;;
27632;SDS011;15046;50.930;13.334;2022-09-13T08:43:19;10.38;;;5.90;;
27632;SDS011;15046;50.930;13.334;2022-09-13T08:46:07;8.77;;;5.78;;
27632;SDS011;15046;50.930;13.334;2022-09-13T08:48:36;8.65;;;5.72;;
27632;SDS011;15046;50.930;13.334;2022-09-13T08:51:08;8.70;;;6.10;;
27632;SDS011;15046;50.930;13.334;2022-09-13T08:53:48;7.93;;;5.45;;
27632;SDS011;15046;50.930;13.334;2022-09-13T08:56:19;7.45;;;5.50;;
27632;SDS011;15046;50.930;13.334;2022-09-13T09:07:35;6.72;;;5.28;;
27632;SDS011;15046;50.930;13.334;2022-09-13T09:10:29;7.20;;;5.55;;
27632;SDS011;15046;50.930;13.334;2022-09-13T09:12:56;7.25;;;5.22;;
27632;SDS011;15046;50.930;13.334;2022-09-13T09:15:23;8.00;;;5.15;;
27632;SDS011;15046;50.930;13.334;2022-09-13T09:23:22;8.25;;;5.10;;
27632;SDS011;15046;50.930;13.334;2022-09-13T09:26:16;8.40;;;5.22;;
27632;SDS011;15046;50.930;13.334;2022-09-13T09:28:49;7.32;;;5.05;;
27632;SDS011;15046;50.930;13.334;2022-09-13T09:34:35;7.28;;;4.95;;
27632;SDS011;15046;50.930;13.334;2022-09-13T09:37:18;6.32;;;4.53;;
27632;SDS011;15046;50.930;13.334;2022-09-13T09:39:45;6.65;;;4.15;;
27632;SDS011;15046;50.930;13.334;2022-09-13T09:42:16;8.13;;;4.65;;
27632;SDS011;15046;50.930;13.334;2022-09-13T09:44:56;5.78;;;4.10;;
27632;SDS011;15046;50.930;13.334;2022-09-13T09:47:27;5.15;;;3.90;;
27632;SDS011;15046;50.930;13.334;2022-09-13T09:50:08;5.80;;;3.53;;
27632;SDS011;15046;50.930;13.334;2022-09-13T09:52:46;7.00;;;3.75;;
27632;SDS011;15046;50.930;13.334;2022-09-13T09:55:24;6.03;;;3.63;;
27632;SDS011;15046;50.930;13.334;2022-09-13T09:58:02;5.43;;;3.53;;
27632;SDS011;15046;50.930;13.334;2022-09-13T10:00:33;4.72;;;3.55;;
27632;SDS011;15046;50.930;13.334;2022-09-13T10:03:47;4.78;;;3.58;;
27632;SDS011;15046;50.930;13.334;2022-09-13T10:06:02;6.70;;;3.42;;
27632;SDS011;15046;50.930;13.334;2022-09-13T10:08:30;5.30;;;3.63;;
27632;SDS011;15046;50.930;13.334;2022-09-13T10:10:59;5.87;;;3.63;;
27632;SDS011;15046;50.930;13.334;2022-09-13T10:13:26;5.15;;;3.33;;
27632;SDS011;15046;50.930;13.334;2022-09-13T10:15:56;4.93;;;3.58;;
27632;SDS011;15046;50.930;13.334;2022-09-13T10:18:33;5.13;;;3.30;;
27632;SDS011;15046;50.930;13.334;2022-09-13T10:21:02;5.20;;;3.40;;
27632;SDS011;15046;50.930;13.334;2022-09-13T10:23:34;6.68;;;3.17;;
27632;SDS011;15046;50.930;13.334;2022-09-13T10:26:11;6.90;;;3.15;;
27632;SDS011;15046;50.930;13.334;2022-09-13T10:28:46;5.60;;;3.30;;
27632;SDS011;15046;50.930;13.334;2022-09-13T10:31:30;4.63;;;3.42;;
27632;SDS011;15046;50.930;13.334;2022-09-13T10:36:32;4.80;;;3.20;;
27632;SDS011;15046;50.930;13.334;2022-09-13T10:39:01;4.90;;;3.10;;
27632;SDS011;15046;50.930;13.334;2022-09-13T10:41:46;4.38;;;3.22;;
27632;SDS011;15046;50.930;13.334;2022-09-13T10:47:09;4.70;;;3.38;;
27632;SDS011;15046;50.930;13.334;2022-09-13T10:52:24;7.30;;;3.72;;
27632;SDS011;15046;50.930;13.334;2022-09-13T10:57:44;4.95;;;3.13;;
27632;SDS011;15046;50.930;13.334;2022-09-13T11:00:12;4.95;;;3.00;;
27632;SDS011;15046;50.930;13.334;2022-09-13T11:05:48;4.95;;;3.50;;
27632;SDS011;15046;50.930;13.334;2022-09-13T11:14:21;5.88;;;3.42;;
27632;SDS011;15046;50.930;13.334;2022-09-13T11:17:02;5.28;;;3.10;;
27632;SDS011;15046;50.930;13.334;2022-09-13T11:22:39;5.40;;;3.00;;
27632;SDS011;15046;50.930;13.334;2022-09-13T11:28:35;5.15;;;3.13;;
27632;SDS011;15046;50.930;13.334;2022-09-13T11:37:19;4.32;;;2.65;;
27632;SDS011;15046;50.930;13.334;2022-09-13T11:57:28;4.10;;;2.28;;
27632;SDS011;15046;50.930;13.334;2022-09-13T12:00:04;2.75;;;2.00;;
27632;SDS011;15046;50.930;13.334;2022-09-13T12:05:54;4.68;;;2.65;;
27632;SDS011;15046;50.930;13.334;2022-09-13T12:08:26;6.60;;;2.35;;
27632;SDS011;15046;50.930;13.334;2022-09-13T12:11:02;4.40;;;2.10;;
27632;SDS011;15046;50.930;13.334;2022-09-13T12:13:35;5.15;;;2.40;;
27632;SDS011;15046;50.930;13.334;2022-09-13T12:16:07;3.00;;;2.00;;
27632;SDS011;15046;50.930;13.334;2022-09-13T12:18:40;2.67;;;2.00;;
27632;SDS011;15046;50.930;13.334;2022-09-13T12:21:11;3.80;;;2.15;;
27632;SDS011;15046;50.930;13.334;2022-09-13T12:29:18;3.35;;;2.00;;
27632;SDS011;15046;50.930;13.334;2022-09-13T12:32:08;3.40;;;2.15;;
27632;SDS011;15046;50.930;13.334;2022-09-13T12:34:39;3.53;;;1.75;;
27632;SDS011;15046;50.930;13.334;2022-09-13T13:00:08;3.10;;;1.63;;
27632;SDS011;15046;50.930;13.334;2022-09-13T13:02:50;3.83;;;1.67;;
27632;SDS011;15046;50.930;13.334;2022-09-13T13:05:31;4.47;;;1.88;;
27632;SDS011;15046;50.930;13.334;2022-09-13T13:10:44;3.55;;;1.50;;
27632;SDS011;15046;50.930;13.334;2022-09-13T13:13:30;2.58;;;1.52;;
27632;SDS011;15046;50.930;13.334;2022-09-13T13:16:03;3.50;;;1.67;;
27632;SDS011;15046;50.930;13.334;2022-09-13T13:18:45;4.43;;;1.70;;
27632;SDS011;15046;50.930;13.334;2022-09-13T13:21:32;2.13;;;1.40;;
27632;SDS011;15046;50.930;13.334;2022-09-13T13:29:19;2.83;;;1.60;;
27632;SDS011;15046;50.930;13.334;2022-09-13T13:36:53;6.07;;;1.42;;
27632;SDS011;15046;50.930;13.334;2022-09-13T13:46:54;5.22;;;2.00;;
27632;SDS011;15046;50.930;13.334;2022-09-13T14:02:45;3.10;;;1.90;;
27632;SDS011;15046;50.930;13.334;2022-09-13T14:10:57;3.05;;;2.00;;
27632;SDS011;15046;50.930;13.334;2022-09-13T14:16:31;3.38;;;2.13;;
27632;SDS011;15046;50.930;13.334;2022-09-13T14:21:39;3.38;;;2.08;;
27632;SDS011;15046;50.930;13.334;2022-09-13T14:24:12;3.25;;;2.10;;
27632;SDS011;15046;50.930;13.334;2022-09-13T14:26:46;3.67;;;2.20;;
27632;SDS011;15046;50.930;13.334;2022-09-13T14:29:15;4.18;;;2.00;;
27632;SDS011;15046;50.930;13.334;2022-09-13T14:32:06;5.40;;;2.30;;
27632;SDS011;15046;50.930;13.334;2022-09-13T14:34:38;5.05;;;2.45;;
27632;SDS011;15046;50.930;13.334;2022-09-13T14:37:05;2.65;;;1.88;;
27632;SDS011;15046;50.930;13.334;2022-09-13T14:39:52;3.63;;;1.92;;
27632;SDS011;15046;50.930;13.334;2022-09-13T14:42:19;3.53;;;2.00;;
27632;SDS011;15046;50.930;13.334;2022-09-13T14:44:45;4.55;;;1.95;;
27632;SDS011;15046;50.930;13.334;2022-09-13T14:47:15;2.55;;;1.77;;
27632;SDS011;15046;50.930;13.334;2022-09-13T14:50:06;3.47;;;1.98;;
27632;SDS011;15046;50.930;13.334;2022-09-13T14:52:45;4.50;;;2.75;;
27632;SDS011;15046;50.930;13.334;2022-09-13T14:55:18;3.60;;;2.03;;
27632;SDS011;15046;50.930;13.334;2022-09-13T14:57:51;4.47;;;2.20;;
27632;SDS011;15046;50.930;13.334;2022-09-13T15:00:22;5.05;;;2.38;;
27632;SDS011;15046;50.930;13.334;2022-09-13T15:02:50;3.42;;;1.83;;
27632;SDS011;15046;50.930;13.334;2022-09-13T15:05:20;4.03;;;2.20;;
27632;SDS011;15046;50.930;13.334;2022-09-13T15:07:48;3.53;;;2.15;;
27632;SDS011;15046;50.930;13.334;2022-09-13T15:12:53;4.40;;;2.42;;
27632;SDS011;15046;50.930;13.334;2022-09-13T15:15:47;4.72;;;2.10;;
27632;SDS011;15046;50.930;13.334;2022-09-13T15:20:50;4.60;;;2.03;;
27632;SDS011;15046;50.930;13.334;2022-09-13T15:23:31;4.10;;;1.90;;
27632;SDS011;15046;50.930;13.334;2022-09-13T15:26:04;3.13;;;1.90;;
27632;SDS011;15046;50.930;13.334;2022-09-13T15:31:21;3.25;;;2.03;;
27632;SDS011;15046;50.930;13.334;2022-09-13T15:34:09;4.55;;;1.75;;
27632;SDS011;15046;50.930;13.334;2022-09-13T15:42:13;4.50;;;1.77;;
27632;SDS011;15046;50.930;13.334;2022-09-13T15:44:39;4.93;;;2.00;;
27632;SDS011;15046;50.930;13.334;2022-09-13T15:47:08;4.25;;;1.88;;
27632;SDS011;15046;50.930;13.334;2022-09-13T15:49:39;3.20;;;1.70;;
27632;SDS011;15046;50.930;13.334;2022-09-13T15:52:05;3.20;;;1.80;;
27632;SDS011;15046;50.930;13.334;2022-09-13T15:54:35;3.25;;;1.80;;
27632;SDS011;15046;50.930;13.334;2022-09-13T15:57:07;4.53;;;1.85;;
27632;SDS011;15046;50.930;13.334;2022-09-13T15:59:41;3.53;;;1.60;;
27632;SDS011;15046;50.930;13.334;2022-09-13T16:05:01;3.60;;;2.03;;
27632;SDS011;15046;50.930;13.334;2022-09-13T16:07:27;4.82;;;2.10;;
27632;SDS011;15046;50.930;13.334;2022-09-13T16:09:53;3.17;;;1.85;;
27632;SDS011;15046;50.930;13.334;2022-09-13T16:12:19;4.10;;;2.00;;
27632;SDS011;15046;50.930;13.334;2022-09-13T16:14:48;3.65;;;1.80;;
27632;SDS011;15046;50.930;13.334;2022-09-13T16:17:24;4.15;;;1.63;;
27632;SDS011;15046;50.930;13.334;2022-09-13T16:19:51;2.60;;;1.63;;
27632;SDS011;15046;50.930;13.334;2022-09-13T16:22:17;3.65;;;1.75;;
27632;SDS011;15046;50.930;13.334;2022-09-13T16:24:46;3.75;;;1.77;;
27632;SDS011;15046;50.930;13.334;2022-09-13T16:27:12;6.13;;;2.08;;
27632;SDS011;15046;50.930;13.334;2022-09-13T16:29:40;4.22;;;2.08;;
27632;SDS011;15046;50.930;13.334;2022-09-13T16:32:09;3.38;;;1.70;;
27632;SDS011;15046;50.930;13.334;2022-09-13T16:34:35;3.70;;;2.00;;
27632;SDS011;15046;50.930;13.334;2022-09-13T16:37:02;3.05;;;2.00;;
27632;SDS011;15046;50.930;13.334;2022-09-13T16:39:28;4.88;;;2.13;;
27632;SDS011;15046;50.930;13.334;2022-09-13T16:41:54;5.38;;;2.05;;
27632;SDS011;15046;50.930;13.334;2022-09-13T16:44:20;4.18;;;1.98;;
27632;SDS011;15046;50.930;13.334;2022-09-13T16:46:48;3.20;;;1.92;;
27632;SDS011;15046;50.930;13.334;2022-09-13T16:49:15;3.28;;;1.85;;
27632;SDS011;15046;50.930;13.334;2022-09-13T16:51:41;3.70;;;1.80;;
27632;SDS011;15046;50.930;13.334;2022-09-13T16:54:07;3.50;;;2.25;;
27632;SDS011;15046;50.930;13.334;2022-09-13T16:56:33;3.65;;;2.03;;
27632;SDS011;15046;50.930;13.334;2022-09-13T16:58:59;5.20;;;2.20;;
27632;SDS011;15046;50.930;13.334;2022-09-13T17:01:25;5.88;;;2.10;;
27632;SDS011;15046;50.930;13.334;2022-09-13T17:03:53;7.00;;;2.45;;
27632;SDS011;15046;50.930;13.334;2022-09-13T17:06:20;4.32;;;2.00;;
27632;SDS011;15046;50.930;13.334;2022-09-13T17:08:51;3.78;;;2.22;;
27632;SDS011;15046;50.930;13.334;2022-09-13T17:11:20;4.30;;;2.33;;
27632;SDS011;15046;50.930;13.334;2022-09-13T17:13:47;3.83;;;2.05;;
27632;SDS011;15046;50.930;13.334;2022-09-13T17:16:56;4.05;;;2.45;;
27632;SDS011;15046;50.930;13.334;2022-09-13T17:19:10;4.28;;;2.05;;
27632;SDS011;15046;50.930;13.334;2022-09-13T17:21:41;3.58;;;1.98;;
27632;SDS011;15046;50.930;13.334;2022-09-13T17:24:08;3.17;;;2.13;;
27632;SDS011;15046;50.930;13.334;2022-09-13T17:26:37;5.35;;;2.60;;
27632;SDS011;15046;50.930;13.334;2022-09-13T17:29:03;3.50;;;2.60;;
27632;SDS011;15046;50.930;13.334;2022-09-13T17:31:29;3.38;;;2.25;;
27632;SDS011;15046;50.930;13.334;2022-09-13T17:33:55;6.07;;;2.65;;
27632;SDS011;15046;50.930;13.334;2022-09-13T17:36:22;7.72;;;2.80;;
27632;SDS011;15046;50.930;13.334;2022-09-13T17:38:53;3.83;;;2.20;;
27632;SDS011;15046;50.930;13.334;2022-09-13T17:41:20;4.07;;;2.45;;
27632;SDS011;15046;50.930;13.334;2022-09-13T17:43:47;3.47;;;2.22;;
27632;SDS011;15046;50.930;13.334;2022-09-13T17:46:31;5.90;;;2.65;;
27632;SDS011;15046;50.930;13.334;2022-09-13T17:48:58;3.92;;;2.20;;
27632;SDS011;15046;50.930;13.334;2022-09-13T17:51:25;4.10;;;2.30;;
27632;SDS011;15046;50.930;13.334;2022-09-13T17:53:54;5.45;;;2.60;;
27632;SDS011;15046;50.930;13.334;2022-09-13T17:58:55;3.45;;;2.15;;
27632;SDS011;15046;50.930;13.334;2022-09-13T18:01:27;4.43;;;2.60;;
27632;SDS011;15046;50.930;13.334;2022-09-13T18:03:53;4.38;;;2.58;;
27632;SDS011;15046;50.930;13.334;2022-09-13T18:06:19;3.30;;;2.20;;
27632;SDS011;15046;50.930;13.334;2022-09-13T18:08:45;4.43;;;2.80;;
27632;SDS011;15046;50.930;13.334;2022-09-13T18:11:13;4.53;;;2.45;;
27632;SDS011;15046;50.930;13.334;2022-09-13T18:13:42;4.28;;;2.50;;
27632;SDS011;15046;50.930;13.334;2022-09-13T18:16:10;4.80;;;2.50;;
27632;SDS011;15046;50.930;13.334;2022-09-13T18:18:41;6.97;;;2.42;;
27632;SDS011;15046;50.930;13.334;2022-09-13T18:21:10;3.20;;;2.25;;
27632;SDS011;15046;50.930;13.334;2022-09-13T18:23:39;3.97;;;2.40;;
27632;SDS011;15046;50.930;13.334;2022-09-13T18:26:06;3.47;;;2.10;;
27632;SDS011;15046;50.930;13.334;2022-09-13T18:28:34;3.45;;;2.13;;
27632;SDS011;15046;50.930;13.334;2022-09-13T18:31:01;3.67;;;2.55;;
27632;SDS011;15046;50.930;13.334;2022-09-13T18:33:29;3.67;;;2.22;;
27632;SDS011;15046;50.930;13.334;2022-09-13T18:36:06;4.32;;;2.33;;
27632;SDS011;15046;50.930;13.334;2022-09-13T18:38:40;6.70;;;2.40;;
27632;SDS011;15046;50.930;13.334;2022-09-13T18:41:13;4.35;;;2.70;;
27632;SDS011;15046;50.930;13.334;2022-09-13T18:43:40;4.38;;;2.50;;
27632;SDS011;15046;50.930;13.334;2022-09-13T18:46:08;4.57;;;2.30;;
27632;SDS011;15046;50.930;13.334;2022-09-13T18:48:40;3.83;;;2.38;;
27632;SDS011;15046;50.930;13.334;2022-09-13T18:51:08;3.72;;;2.15;;
27632;SDS011;15046;50.930;13.334;2022-09-13T18:53:35;3.75;;;2.20;;
27632;SDS011;15046;50.930;13.334;2022-09-13T18:56:06;3.28;;;2.08;;
27632;SDS011;15046;50.930;13.334;2022-09-13T18:58:34;4.45;;;2.30;;
27632;SDS011;15046;50.930;13.334;2022-09-13T19:03:30;4.30;;;2.42;;